Sea Lion — WDG3865 — position and weather

sailwx.info

Track history (hours):
 
Tides and Currents Weather Stations Pressure Air Temp Water Temp Dewpoint Dewpoint Depression Visibility Wind Speed Wind Dir Waves Ship Positions

Sea Lion

Owner: Garber Bros., Inc., Morgan City, LA. More information available from US FCC via Universal Licensing System and Coast Guard Vessel Documentation Center.

Last reported at 2018-Jul-21 17:25 UTC. Time now 2018-Jul-22 16:43 UTC.
Position N 29°47' W 091°48'.

Length 25 m; draft 3 m.

Type: Towing. MMSI: 367530470.

Date/timePositionNaut miles runAvg speedWind from/ knotsBaromVisibWave heightAir tempDewpointWater temp
2018-Jul-21 17:25N 29°47' W 091°48'10 3.2
2018-Jul-21 14:10N 29°57' W 091°51'0 0.0
2018-Jul-21 13:59N 29°57' W 091°51'0 0.0
2018-Jul-21 13:14N 29°57' W 091°51'0 0.0
2018-Jul-21 12:59N 29°57' W 091°51'0 0.0
2018-Jul-21 12:29N 29°57' W 091°51'21 4.1
2018-Jul-21 07:31N 29°43' W 091°33'1 6.9
2018-Jul-21 07:26N 29°43' W 091°32'9 6.5
2018-Jul-21 06:03N 29°39' W 091°23'0 6.7
2018-Jul-21 05:59N 29°39' W 091°23'3 6.4
2018-Jul-21 05:29N 29°38' W 091°19'4 2.3
2018-Jul-21 03:45N 29°38' W 091°14'5 5.0
2018-Jul-21 02:44N 29°33' W 091°14'1 5.8
2018-Jul-21 02:30N 29°32' W 091°16'3 5.8
2018-Jul-21 01:58N 29°29' W 091°16'3 5.8
2018-Jul-21 01:31N 29°27' W 091°18'8 5.8
2018-Jul-21 00:12N 29°22' W 091°24'1 5.4
2018-Jul-21 00:00N 29°21' W 091°24'10 5.1
2018-Jul-20 21:59N 29°13' W 091°32'2 2.3
2018-Jul-20 20:59N 29°14' W 091°30'1 2.1
2018-Jul-20 20:22N 29°15' W 091°29'1 3.5
2018-Jul-20 20:00N 29°16' W 091°28'6 4.7
2018-Jul-20 18:40N 29°21' W 091°24'1 6.3
2018-Jul-20 18:29N 29°22' W 091°23'  
Track history (hours):
 
Tides and Currents Weather Stations Pressure Air Temp Water Temp Dewpoint Dewpoint Depression Visibility Wind Speed Wind Dir Waves Ship Positions

Sea Lion

Owner: Garber Bros., Inc., Morgan City, LA. More information available from US FCC via Universal Licensing System and Coast Guard Vessel Documentation Center.

Last reported at 2018-Jul-21 17:25 UTC. Time now 2018-Jul-22 16:43 UTC.
Position N 29°47' W 091°48'.

Length 25 m; draft 3 m.

Type: Towing. MMSI: 367530470.

Date/timePositionNaut miles runAvg speedWind from/ knotsBaromVisibWave heightAir tempDewpointWater temp
2018-Jul-21 17:25N 29°47' W 091°48'10 3.2
2018-Jul-21 14:10N 29°57' W 091°51'0 0.0
2018-Jul-21 13:59N 29°57' W 091°51'0 0.0
2018-Jul-21 13:14N 29°57' W 091°51'0 0.0
2018-Jul-21 12:59N 29°57' W 091°51'0 0.0
2018-Jul-21 12:29N 29°57' W 091°51'21 4.1
2018-Jul-21 07:31N 29°43' W 091°33'1 6.9
2018-Jul-21 07:26N 29°43' W 091°32'9 6.5
2018-Jul-21 06:03N 29°39' W 091°23'0 6.7
2018-Jul-21 05:59N 29°39' W 091°23'3 6.4
2018-Jul-21 05:29N 29°38' W 091°19'4 2.3
2018-Jul-21 03:45N 29°38' W 091°14'5 5.0
2018-Jul-21 02:44N 29°33' W 091°14'1 5.8
2018-Jul-21 02:30N 29°32' W 091°16'3 5.8
2018-Jul-21 01:58N 29°29' W 091°16'3 5.8
2018-Jul-21 01:31N 29°27' W 091°18'8 5.8
2018-Jul-21 00:12N 29°22' W 091°24'1 5.4
2018-Jul-21 00:00N 29°21' W 091°24'10 5.1
2018-Jul-20 21:59N 29°13' W 091°32'2 2.3
2018-Jul-20 20:59N 29°14' W 091°30'1 2.1
2018-Jul-20 20:22N 29°15' W 091°29'1 3.5
2018-Jul-20 20:00N 29°16' W 091°28'6 4.7
2018-Jul-20 18:40N 29°21' W 091°24'1 6.3
2018-Jul-20 18:29N 29°22' W 091°23'  

Dump ship's entire track history